PWSweather.com
Personal Weather Stations
Station Observations
WD4JKH
Forsyth, GA 31029

Forsyth, GA 31029

Lat: 33.033225, Lon: -83.927995

Elevation: 709

Station Type: Davis Vantage VUE

High Low Average
Temperature 73.9°F23.3°C 52.8°F11.6°C 64.0°F17.8°C
Dew Point 51.5°F10.8°C 46.2°F7.9°C 49.1°F9.5°C
Winds 6.7 mph 10.8 kmh Calm Calm 2.0 mph WNW3.2 kmh WNW
Wind Gusts 14.0 mph22.5 kmh 1.0 mph1.6 kmh 7.0 mph11.3 kmh
Humidity 87% 40% 61%
Pressure 30.02 in1016.6 mb 29.92 in1013.2 mb -
Precipitation 0.00 in0.0 mm - -
Hour Temp Dew Point Humidity Winds Wind Gusts Pressure Precip Precip Rate Daily Precip Total
12:04 AM 61.4°F16.3°C 51.7°F10.9°C 70% 2.4 mph NW3.9 kmh NW 8.0 mph12.9 kmh 29.93 in1013.5 mb 0.00 in0.0 mm 0.00 in0.0 mm 0.00 in0.0 mm
12:09 AM 61.2°F16.2°C 51.9°F11.1°C 71% 2.0 mph NNW3.2 kmh NNW 7.0 mph11.3 kmh 29.93 in1013.5 mb 0.00 in0.0 mm 0.00 in0.0 mm 0.00 in0.0 mm
12:14 AM 61.0°F16.1°C 51.7°F10.9°C 71% 2.8 mph N4.5 kmh N 7.0 mph11.3 kmh 29.93 in1013.5 mb 0.00 in0.0 mm 0.00 in0.0 mm 0.00 in0.0 mm
12:19 AM 60.8°F16.0°C 51.3°F10.7°C 71% 1.3 mph NW2.1 kmh NW 7.0 mph11.3 kmh 29.93 in1013.5 mb 0.00 in0.0 mm 0.00 in0.0 mm 0.00 in0.0 mm
12:24 AM 60.6°F15.9°C 51.7°F10.9°C 72% 1.5 mph NW2.4 kmh NW 7.0 mph11.3 kmh 29.94 in1013.9 mb 0.00 in0.0 mm 0.00 in0.0 mm 0.00 in0.0 mm
12:29 AM 60.5°F15.8°C 51.6°F10.9°C 72% 1.0 mph NW1.6 kmh NW 7.0 mph11.3 kmh 29.94 in1013.9 mb 0.00 in0.0 mm 0.00 in0.0 mm 0.00 in0.0 mm
12:34 AM 60.4°F15.8°C 51.5°F10.8°C 72% 1.4 mph NNW2.3 kmh NNW 4.0 mph6.4 kmh 29.93 in1013.5 mb 0.00 in0.0 mm 0.00 in0.0 mm 0.00 in0.0 mm
12:39 AM 60.2°F15.7°C 51.1°F10.6°C 72% 1.4 mph NNW2.3 kmh NNW 4.0 mph6.4 kmh 29.93 in1013.5 mb 0.00 in0.0 mm 0.00 in0.0 mm 0.00 in0.0 mm
12:44 AM 60.2°F15.7°C 51.1°F10.6°C 72% 2.7 mph NNW4.3 kmh NNW 5.0 mph8.0 kmh 29.93 in1013.5 mb 0.00 in0.0 mm 0.00 in0.0 mm 0.00 in0.0 mm
12:49 AM 60.1°F15.6°C 51.4°F10.8°C 73% 1.4 mph NW2.3 kmh NW 5.0 mph8.0 kmh 29.93 in1013.5 mb 0.00 in0.0 mm 0.00 in0.0 mm 0.00 in0.0 mm
12:54 AM 59.9°F15.5°C 51.3°F10.7°C 73% 2.2 mph NW3.5 kmh NW 5.0 mph8.0 kmh 29.93 in1013.5 mb 0.00 in0.0 mm 0.00 in0.0 mm 0.00 in0.0 mm
12:59 AM 59.8°F15.4°C 51.2°F10.7°C 73% 1.6 mph NNW2.6 kmh NNW 5.0 mph8.0 kmh 29.93 in1013.5 mb 0.00 in0.0 mm 0.00 in0.0 mm 0.00 in0.0 mm
01:04 AM 59.7°F15.4°C 51.5°F10.8°C 74% 1.3 mph N2.1 kmh N 4.0 mph6.4 kmh 29.93 in1013.5 mb 0.00 in0.0 mm 0.00 in0.0 mm 0.00 in0.0 mm
01:09 AM 59.5°F15.3°C 51.3°F10.7°C 74% 1.6 mph NNW2.6 kmh NNW 4.0 mph6.4 kmh 29.93 in1013.5 mb 0.00 in0.0 mm 0.00 in0.0 mm 0.00 in0.0 mm
01:14 AM 59.3°F15.2°C 51.5°F10.8°C 75% 1.4 mph NNW2.3 kmh NNW 4.0 mph6.4 kmh 29.93 in1013.5 mb 0.00 in0.0 mm 0.00 in0.0 mm 0.00 in0.0 mm
01:19 AM 59.2°F15.1°C 51.4°F10.8°C 75% 1.4 mph NNW2.3 kmh NNW 6.0 mph9.7 kmh 29.93 in1013.5 mb 0.00 in0.0 mm 0.00 in0.0 mm 0.00 in0.0 mm
01:24 AM 59.1°F15.1°C 51.3°F10.7°C 75% 1.0 mph NNW1.6 kmh NNW 6.0 mph9.7 kmh 29.93 in1013.5 mb 0.00 in0.0 mm 0.00 in0.0 mm 0.00 in0.0 mm
01:29 AM 58.9°F14.9°C 51.4°F10.8°C 76% 1.4 mph NW2.3 kmh NW 6.0 mph9.7 kmh 29.93 in1013.5 mb 0.00 in0.0 mm 0.00 in0.0 mm 0.00 in0.0 mm
01:34 AM 58.7°F14.8°C 51.2°F10.7°C 76% Calm Calm 6.0 mph9.7 kmh 29.93 in1013.5 mb 0.00 in0.0 mm 0.00 in0.0 mm 0.00 in0.0 mm
01:39 AM 58.6°F14.8°C 51.1°F10.6°C 76% 2.3 mph N3.7 kmh N 6.0 mph9.7 kmh 29.93 in1013.5 mb 0.00 in0.0 mm 0.00 in0.0 mm 0.00 in0.0 mm
01:44 AM 58.5°F14.7°C 51.1°F10.6°C 76% 1.6 mph NW2.6 kmh NW 6.0 mph9.7 kmh 29.93 in1013.5 mb 0.00 in0.0 mm 0.00 in0.0 mm 0.00 in0.0 mm
01:49 AM 58.5°F14.7°C 51.1°F10.6°C 76% 1.3 mph NNE2.1 kmh NNE 5.0 mph8.0 kmh 29.93 in1013.5 mb 0.00 in0.0 mm 0.00 in0.0 mm 0.00 in0.0 mm
01:54 AM 58.3°F14.6°C 50.9°F10.5°C 76% 1.4 mph NW2.3 kmh NW 5.0 mph8.0 kmh 29.93 in1013.5 mb 0.00 in0.0 mm 0.00 in0.0 mm 0.00 in0.0 mm
01:59 AM 58.3°F14.6°C 50.9°F10.5°C 76% 1.3 mph NNW2.1 kmh NNW 3.0 mph4.8 kmh 29.93 in1013.5 mb 0.00 in0.0 mm 0.00 in0.0 mm 0.00 in0.0 mm
02:04 AM 58.2°F14.6°C 50.8°F10.4°C 76% 1.6 mph N2.6 kmh N 3.0 mph4.8 kmh 29.93 in1013.5 mb 0.00 in0.0 mm 0.00 in0.0 mm 0.00 in0.0 mm
02:09 AM 58.2°F14.6°C 50.8°F10.4°C 76% 1.2 mph NW1.9 kmh NW 4.0 mph6.4 kmh 29.93 in1013.5 mb 0.00 in0.0 mm 0.00 in0.0 mm 0.00 in0.0 mm
02:14 AM 58.1°F14.5°C 51.0°F10.6°C 77% 1.5 mph NNW2.4 kmh NNW 4.0 mph6.4 kmh 29.93 in1013.5 mb 0.00 in0.0 mm 0.00 in0.0 mm 0.00 in0.0 mm
02:19 AM 58.0°F14.4°C 50.9°F10.5°C 77% 1.0 mph NW1.6 kmh NW 4.0 mph6.4 kmh 29.93 in1013.5 mb 0.00 in0.0 mm 0.00 in0.0 mm 0.00 in0.0 mm
02:24 AM 57.9°F14.4°C 50.8°F10.4°C 77% 1.2 mph N1.9 kmh N 4.0 mph6.4 kmh 29.92 in1013.2 mb 0.00 in0.0 mm 0.00 in0.0 mm 0.00 in0.0 mm
02:29 AM 57.7°F14.3°C 51.0°F10.6°C 78% 1.6 mph N2.6 kmh N 3.0 mph4.8 kmh 29.92 in1013.2 mb 0.00 in0.0 mm 0.00 in0.0 mm 0.00 in0.0 mm
02:34 AM 57.7°F14.3°C 51.0°F10.6°C 78% 1.3 mph NW2.1 kmh NW 6.0 mph9.7 kmh 29.92 in1013.2 mb 0.00 in0.0 mm 0.00 in0.0 mm 0.00 in0.0 mm
02:39 AM 57.5°F14.2°C 50.8°F10.4°C 78% 1.5 mph NNW2.4 kmh NNW 6.0 mph9.7 kmh 29.92 in1013.2 mb 0.00 in0.0 mm 0.00 in0.0 mm 0.00 in0.0 mm
02:44 AM 57.4°F14.1°C 51.0°F10.6°C 79% 1.5 mph NW2.4 kmh NW 6.0 mph9.7 kmh 29.92 in1013.2 mb 0.00 in0.0 mm 0.00 in0.0 mm 0.00 in0.0 mm
02:49 AM 57.3°F14.1°C 50.8°F10.4°C 79% 2.0 mph NNW3.2 kmh NNW 6.0 mph9.7 kmh 29.92 in1013.2 mb 0.00 in0.0 mm 0.00 in0.0 mm 0.00 in0.0 mm
02:54 AM 57.2°F14.0°C 50.7°F10.4°C 79% 1.9 mph NW3.1 kmh NW 5.0 mph8.0 kmh 29.92 in1013.2 mb 0.00 in0.0 mm 0.00 in0.0 mm 0.00 in0.0 mm
02:59 AM 57.1°F13.9°C 51.0°F10.6°C 80% 2.3 mph NW3.7 kmh NW 5.0 mph8.0 kmh 29.92 in1013.2 mb 0.00 in0.0 mm 0.00 in0.0 mm 0.00 in0.0 mm
03:04 AM 57.0°F13.9°C 50.9°F10.5°C 80% 1.9 mph NNW3.1 kmh NNW 5.0 mph8.0 kmh 29.92 in1013.2 mb 0.00 in0.0 mm 0.00 in0.0 mm 0.00 in0.0 mm
03:09 AM 57.0°F13.9°C 50.9°F10.5°C 80% Calm Calm 5.0 mph8.0 kmh 29.92 in1013.2 mb 0.00 in0.0 mm 0.00 in0.0 mm 0.00 in0.0 mm
03:14 AM 56.9°F13.8°C 50.8°F10.4°C 80% 1.8 mph 2.9 kmh 5.0 mph8.0 kmh 29.92 in1013.2 mb 0.00 in0.0 mm 0.00 in0.0 mm 0.00 in0.0 mm
03:19 AM 56.8°F13.8°C 50.7°F10.4°C 80% 1.5 mph NW2.4 kmh NW 5.0 mph8.0 kmh 29.92 in1013.2 mb 0.00 in0.0 mm 0.00 in0.0 mm 0.00 in0.0 mm
03:24 AM 56.7°F13.7°C 50.6°F10.3°C 80% 1.8 mph N2.9 kmh N 5.0 mph8.0 kmh 29.92 in1013.2 mb 0.00 in0.0 mm 0.00 in0.0 mm 0.00 in0.0 mm
03:29 AM 56.6°F13.7°C 50.5°F10.3°C 80% 1.5 mph N2.4 kmh N 4.0 mph6.4 kmh 29.92 in1013.2 mb 0.00 in0.0 mm 0.00 in0.0 mm 0.00 in0.0 mm
03:34 AM 56.5°F13.6°C 50.8°F10.4°C 81% 1.2 mph NW1.9 kmh NW 4.0 mph6.4 kmh 29.92 in1013.2 mb 0.00 in0.0 mm 0.00 in0.0 mm 0.00 in0.0 mm
03:39 AM 56.4°F13.6°C 50.7°F10.4°C 81% 1.0 mph NW1.6 kmh NW 4.0 mph6.4 kmh 29.92 in1013.2 mb 0.00 in0.0 mm 0.00 in0.0 mm 0.00 in0.0 mm
03:44 AM 56.3°F13.5°C 50.6°F10.3°C 81% 1.0 mph WNW1.6 kmh WNW 3.0 mph4.8 kmh 29.92 in1013.2 mb 0.00 in0.0 mm 0.00 in0.0 mm 0.00 in0.0 mm
03:49 AM 56.2°F13.4°C 50.5°F10.3°C 81% 2.3 mph N3.7 kmh N 4.0 mph6.4 kmh 29.92 in1013.2 mb 0.00 in0.0 mm 0.00 in0.0 mm 0.00 in0.0 mm
03:54 AM 56.0°F13.3°C 50.6°F10.3°C 82% 1.3 mph NNW2.1 kmh NNW 4.0 mph6.4 kmh 29.93 in1013.5 mb 0.00 in0.0 mm 0.00 in0.0 mm 0.00 in0.0 mm
03:59 AM 55.9°F13.3°C 50.5°F10.3°C 82% 1.8 mph NW2.9 kmh NW 4.0 mph6.4 kmh 29.93 in1013.5 mb 0.00 in0.0 mm 0.00 in0.0 mm 0.00 in0.0 mm
04:04 AM 55.8°F13.2°C 50.4°F10.2°C 82% 2.0 mph NW3.2 kmh NW 4.0 mph6.4 kmh 29.93 in1013.5 mb 0.00 in0.0 mm 0.00 in0.0 mm 0.00 in0.0 mm
04:09 AM 55.8°F13.2°C 50.4°F10.2°C 82% 1.1 mph NW1.8 kmh NW 4.0 mph6.4 kmh 29.93 in1013.5 mb 0.00 in0.0 mm 0.00 in0.0 mm 0.00 in0.0 mm
04:14 AM 55.8°F13.2°C 50.4°F10.2°C 82% 1.4 mph NNW2.3 kmh NNW 4.0 mph6.4 kmh 29.93 in1013.5 mb 0.00 in0.0 mm 0.00 in0.0 mm 0.00 in0.0 mm
04:19 AM 55.7°F13.2°C 50.3°F10.2°C 82% Calm Calm 4.0 mph6.4 kmh 29.93 in1013.5 mb 0.00 in0.0 mm 0.00 in0.0 mm 0.00 in0.0 mm
04:24 AM 55.5°F13.1°C 50.4°F10.2°C 83% 1.5 mph NW2.4 kmh NW 3.0 mph4.8 kmh 29.93 in1013.5 mb 0.00 in0.0 mm 0.00 in0.0 mm 0.00 in0.0 mm
04:29 AM 55.4°F13.0°C 50.0°F10.0°C 82% 1.4 mph NW2.3 kmh NW 3.0 mph4.8 kmh 29.93 in1013.5 mb 0.00 in0.0 mm 0.00 in0.0 mm 0.00 in0.0 mm
04:34 AM 55.3°F12.9°C 49.9°F9.9°C 82% Calm Calm 3.0 mph4.8 kmh 29.93 in1013.5 mb 0.00 in0.0 mm 0.00 in0.0 mm 0.00 in0.0 mm
04:39 AM 55.1°F12.8°C 50.0°F10.0°C 83% Calm Calm 3.0 mph4.8 kmh 29.93 in1013.5 mb 0.00 in0.0 mm 0.00 in0.0 mm 0.00 in0.0 mm
04:44 AM 54.8°F12.7°C 49.8°F9.9°C 83% Calm Calm 2.0 mph3.2 kmh 29.93 in1013.5 mb 0.00 in0.0 mm 0.00 in0.0 mm 0.00 in0.0 mm
04:49 AM 54.6°F12.6°C 49.9°F9.9°C 84% 1.4 mph NNW2.3 kmh NNW 2.0 mph3.2 kmh 29.93 in1013.5 mb 0.00 in0.0 mm 0.00 in0.0 mm 0.00 in0.0 mm
04:54 AM 54.5°F12.5°C 49.8°F9.9°C 84% 1.1 mph NNW1.8 kmh NNW 2.0 mph3.2 kmh 29.93 in1013.5 mb 0.00 in0.0 mm 0.00 in0.0 mm 0.00 in0.0 mm
04:59 AM 54.5°F12.5°C 50.1°F10.1°C 85% 1.0 mph NW1.6 kmh NW 2.0 mph3.2 kmh 29.94 in1013.9 mb 0.00 in0.0 mm 0.00 in0.0 mm 0.00 in0.0 mm
05:04 AM 54.5°F12.5°C 50.1°F10.1°C 85% 2.5 mph WNW4.0 kmh WNW 4.0 mph6.4 kmh 29.94 in1013.9 mb 0.00 in0.0 mm 0.00 in0.0 mm 0.00 in0.0 mm
05:09 AM 54.5°F12.5°C 50.1°F10.1°C 85% Calm Calm 4.0 mph6.4 kmh 29.94 in1013.9 mb 0.00 in0.0 mm 0.00 in0.0 mm 0.00 in0.0 mm
05:14 AM 54.3°F12.4°C 49.9°F9.9°C 85% Calm Calm 4.0 mph6.4 kmh 29.94 in1013.9 mb 0.00 in0.0 mm 0.00 in0.0 mm 0.00 in0.0 mm
05:19 AM 54.2°F12.3°C 49.8°F9.9°C 85% 1.0 mph NW1.6 kmh NW 4.0 mph6.4 kmh 29.94 in1013.9 mb 0.00 in0.0 mm 0.00 in0.0 mm 0.00 in0.0 mm
05:24 AM 54.2°F12.3°C 49.8°F9.9°C 85% 1.1 mph NW1.8 kmh NW 2.0 mph3.2 kmh 29.95 in1014.2 mb 0.00 in0.0 mm 0.00 in0.0 mm 0.00 in0.0 mm
05:29 AM 54.3°F12.4°C 49.9°F9.9°C 85% 1.0 mph NW1.6 kmh NW 2.0 mph3.2 kmh 29.95 in1014.2 mb 0.00 in0.0 mm 0.00 in0.0 mm 0.00 in0.0 mm
05:34 AM 54.3°F12.4°C 49.6°F9.8°C 84% Calm Calm 2.0 mph3.2 kmh 29.95 in1014.2 mb 0.00 in0.0 mm 0.00 in0.0 mm 0.00 in0.0 mm
05:39 AM 54.3°F12.4°C 49.6°F9.8°C 84% Calm Calm 2.0 mph3.2 kmh 29.95 in1014.2 mb 0.00 in0.0 mm 0.00 in0.0 mm 0.00 in0.0 mm
05:44 AM 54.3°F12.4°C 49.6°F9.8°C 84% Calm Calm 2.0 mph3.2 kmh 29.95 in1014.2 mb 0.00 in0.0 mm 0.00 in0.0 mm 0.00 in0.0 mm
05:49 AM 54.3°F12.4°C 49.6°F9.8°C 84% 1.0 mph NW1.6 kmh NW 2.0 mph3.2 kmh 29.95 in1014.2 mb 0.00 in0.0 mm 0.00 in0.0 mm 0.00 in0.0 mm
05:54 AM 54.3°F12.4°C 49.6°F9.8°C 84% 1.3 mph NW2.1 kmh NW 2.0 mph3.2 kmh 29.95 in1014.2 mb 0.00 in0.0 mm 0.00 in0.0 mm 0.00 in0.0 mm
05:59 AM 54.4°F12.4°C 49.7°F9.8°C 84% 1.3 mph NW2.1 kmh NW 2.0 mph3.2 kmh 29.96 in1014.6 mb 0.00 in0.0 mm 0.00 in0.0 mm 0.00 in0.0 mm
06:04 AM 54.4°F12.4°C 49.4°F9.7°C 83% 1.8 mph NW2.9 kmh NW 4.0 mph6.4 kmh 29.96 in1014.6 mb 0.00 in0.0 mm 0.00 in0.0 mm 0.00 in0.0 mm
06:09 AM 54.4°F12.4°C 49.4°F9.7°C 83% 1.5 mph NW2.4 kmh NW 4.0 mph6.4 kmh 29.96 in1014.6 mb 0.00 in0.0 mm 0.00 in0.0 mm 0.00 in0.0 mm
06:14 AM 54.3°F12.4°C 49.6°F9.8°C 84% 1.0 mph WNW1.6 kmh WNW 4.0 mph6.4 kmh 29.97 in1014.9 mb 0.00 in0.0 mm 0.00 in0.0 mm 0.00 in0.0 mm
06:19 AM 54.1°F12.3°C 49.4°F9.7°C 84% 1.0 mph W1.6 kmh W 4.0 mph6.4 kmh 29.97 in1014.9 mb 0.00 in0.0 mm 0.00 in0.0 mm 0.00 in0.0 mm
06:24 AM 53.9°F12.2°C 49.2°F9.6°C 84% 1.0 mph W1.6 kmh W 3.0 mph4.8 kmh 29.97 in1014.9 mb 0.00 in0.0 mm 0.00 in0.0 mm 0.00 in0.0 mm
06:29 AM 53.8°F12.1°C 49.4°F9.7°C 85% 1.3 mph W2.1 kmh W 3.0 mph4.8 kmh 29.97 in1014.9 mb 0.00 in0.0 mm 0.00 in0.0 mm 0.00 in0.0 mm
06:34 AM 53.6°F12.0°C 49.2°F9.6°C 85% 1.4 mph WNW2.3 kmh WNW 3.0 mph4.8 kmh 29.97 in1014.9 mb 0.00 in0.0 mm 0.00 in0.0 mm 0.00 in0.0 mm
06:39 AM 53.4°F11.9°C 49.3°F9.6°C 86% Calm Calm 3.0 mph4.8 kmh 29.97 in1014.9 mb 0.00 in0.0 mm 0.00 in0.0 mm 0.00 in0.0 mm
06:44 AM 53.2°F11.8°C 49.1°F9.5°C 86% 1.2 mph WSW1.9 kmh WSW 3.0 mph4.8 kmh 29.98 in1015.2 mb 0.00 in0.0 mm 0.00 in0.0 mm 0.00 in0.0 mm
06:49 AM 53.0°F11.7°C 49.2°F9.6°C 87% Calm Calm 2.0 mph3.2 kmh 29.98 in1015.2 mb 0.00 in0.0 mm 0.00 in0.0 mm 0.00 in0.0 mm
06:54 AM 52.8°F11.6°C 49.0°F9.4°C 87% 1.0 mph WSW1.6 kmh WSW 2.0 mph3.2 kmh 29.98 in1015.2 mb 0.00 in0.0 mm 0.00 in0.0 mm 0.00 in0.0 mm
06:59 AM 52.8°F11.6°C 49.0°F9.4°C 87% 1.0 mph W1.6 kmh W 2.0 mph3.2 kmh 29.98 in1015.2 mb 0.00 in0.0 mm 0.00 in0.0 mm 0.00 in0.0 mm
07:04 AM 53.0°F11.7°C 49.2°F9.6°C 87% 1.0 mph W1.6 kmh W 2.0 mph3.2 kmh 29.98 in1015.2 mb 0.00 in0.0 mm 0.00 in0.0 mm 0.00 in0.0 mm
07:09 AM 53.3°F11.8°C 49.5°F9.7°C 87% Calm Calm 2.0 mph3.2 kmh 29.99 in1015.6 mb 0.00 in0.0 mm 0.00 in0.0 mm 0.00 in0.0 mm
07:14 AM 53.6°F12.0°C 49.5°F9.7°C 86% 1.0 mph W1.6 kmh W 2.0 mph3.2 kmh 29.99 in1015.6 mb 0.00 in0.0 mm 0.00 in0.0 mm 0.00 in0.0 mm
07:19 AM 54.0°F12.2°C 49.6°F9.8°C 85% 1.0 mph W1.6 kmh W 1.0 mph1.6 kmh 29.99 in1015.6 mb 0.00 in0.0 mm 0.00 in0.0 mm 0.00 in0.0 mm
07:24 AM 54.4°F12.4°C 49.7°F9.8°C 84% 1.0 mph WNW1.6 kmh WNW 3.0 mph4.8 kmh 29.99 in1015.6 mb 0.00 in0.0 mm 0.00 in0.0 mm 0.00 in0.0 mm
07:29 AM 54.7°F12.6°C 49.7°F9.8°C 83% 1.4 mph W2.3 kmh W 3.0 mph4.8 kmh 29.99 in1015.6 mb 0.00 in0.0 mm 0.00 in0.0 mm 0.00 in0.0 mm
07:34 AM 55.0°F12.8°C 49.6°F9.8°C 82% 1.6 mph WNW2.6 kmh WNW 3.0 mph4.8 kmh 29.99 in1015.6 mb 0.00 in0.0 mm 0.00 in0.0 mm 0.00 in0.0 mm
07:39 AM 55.4°F13.0°C 49.7°F9.8°C 81% 1.0 mph W1.6 kmh W 3.0 mph4.8 kmh 29.99 in1015.6 mb 0.00 in0.0 mm 0.00 in0.0 mm 0.00 in0.0 mm
07:44 AM 55.6°F13.1°C 49.6°F9.8°C 80% 2.0 mph WNW3.2 kmh WNW 4.0 mph6.4 kmh 30.00 in1015.9 mb 0.00 in0.0 mm 0.00 in0.0 mm 0.00 in0.0 mm
07:49 AM 55.8°F13.2°C 49.8°F9.9°C 80% 1.8 mph W2.9 kmh W 4.0 mph6.4 kmh 30.00 in1015.9 mb 0.00 in0.0 mm 0.00 in0.0 mm 0.00 in0.0 mm
07:54 AM 56.0°F13.3°C 49.6°F9.8°C 79% 2.6 mph WNW4.2 kmh WNW 6.0 mph9.7 kmh 30.00 in1015.9 mb 0.00 in0.0 mm 0.00 in0.0 mm 0.00 in0.0 mm
07:59 AM 56.2°F13.4°C 50.2°F10.1°C 80% 1.3 mph W2.1 kmh W 6.0 mph9.7 kmh 30.00 in1015.9 mb 0.00 in0.0 mm 0.00 in0.0 mm 0.00 in0.0 mm
08:04 AM 56.3°F13.5°C 50.3°F10.2°C 80% 1.8 mph WNW2.9 kmh WNW 6.0 mph9.7 kmh 30.00 in1015.9 mb 0.00 in0.0 mm 0.00 in0.0 mm 0.00 in0.0 mm
08:09 AM 56.5°F13.6°C 50.1°F10.1°C 79% 2.3 mph WNW3.7 kmh WNW 6.0 mph9.7 kmh 30.00 in1015.9 mb 0.00 in0.0 mm 0.00 in0.0 mm 0.00 in0.0 mm
08:14 AM 56.6°F13.7°C 50.2°F10.1°C 79% 2.5 mph WNW4.0 kmh WNW 7.0 mph11.3 kmh 30.00 in1015.9 mb 0.00 in0.0 mm 0.00 in0.0 mm 0.00 in0.0 mm
08:19 AM 57.0°F13.9°C 50.6°F10.3°C 79% 1.1 mph WNW1.8 kmh WNW 7.0 mph11.3 kmh 30.00 in1015.9 mb 0.00 in0.0 mm 0.00 in0.0 mm 0.00 in0.0 mm
08:24 AM 57.5°F14.2°C 50.8°F10.4°C 78% 1.1 mph WNW1.8 kmh WNW 7.0 mph11.3 kmh 30.01 in1016.3 mb 0.00 in0.0 mm 0.00 in0.0 mm 0.00 in0.0 mm
08:29 AM 58.0°F14.4°C 50.6°F10.3°C 76% 1.6 mph WNW2.6 kmh WNW 7.0 mph11.3 kmh 30.01 in1016.3 mb 0.00 in0.0 mm 0.00 in0.0 mm 0.00 in0.0 mm
08:34 AM 58.2°F14.6°C 50.3°F10.2°C 75% 1.5 mph NW2.4 kmh NW 4.0 mph6.4 kmh 30.01 in1016.3 mb 0.00 in0.0 mm 0.00 in0.0 mm 0.00 in0.0 mm
08:39 AM 58.6°F14.8°C 50.7°F10.4°C 75% 1.3 mph WNW2.1 kmh WNW 4.0 mph6.4 kmh 30.01 in1016.3 mb 0.00 in0.0 mm 0.00 in0.0 mm 0.00 in0.0 mm
08:44 AM 58.9°F14.9°C 51.0°F10.6°C 75% 1.5 mph NNW2.4 kmh NNW 4.0 mph6.4 kmh 30.01 in1016.3 mb 0.00 in0.0 mm 0.00 in0.0 mm 0.00 in0.0 mm
08:49 AM 59.2°F15.1°C 50.2°F10.1°C 72% 2.3 mph NW3.7 kmh NW 4.0 mph6.4 kmh 30.01 in1016.3 mb 0.00 in0.0 mm 0.00 in0.0 mm 0.00 in0.0 mm
08:54 AM 59.3°F15.2°C 49.9°F9.9°C 71% 2.7 mph NW4.3 kmh NW 4.0 mph6.4 kmh 30.01 in1016.3 mb 0.00 in0.0 mm 0.00 in0.0 mm 0.00 in0.0 mm
08:59 AM 59.6°F15.3°C 50.3°F10.2°C 71% 2.1 mph WNW3.4 kmh WNW 5.0 mph8.0 kmh 30.01 in1016.3 mb 0.00 in0.0 mm 0.00 in0.0 mm 0.00 in0.0 mm
09:04 AM 60.0°F15.6°C 49.9°F9.9°C 69% 2.6 mph NNW4.2 kmh NNW 6.0 mph9.7 kmh 30.01 in1016.3 mb 0.00 in0.0 mm 0.00 in0.0 mm 0.00 in0.0 mm
09:09 AM 60.3°F15.7°C 49.8°F9.9°C 68% 2.1 mph WNW3.4 kmh WNW 9.0 mph14.5 kmh 30.01 in1016.3 mb 0.00 in0.0 mm 0.00 in0.0 mm 0.00 in0.0 mm
09:14 AM 60.8°F16.0°C 49.5°F9.7°C 66% 2.7 mph NW4.3 kmh NW 9.0 mph14.5 kmh 30.01 in1016.3 mb 0.00 in0.0 mm 0.00 in0.0 mm 0.00 in0.0 mm
09:19 AM 61.1°F16.2°C 49.4°F9.7°C 65% 1.9 mph 3.1 kmh 9.0 mph14.5 kmh 30.01 in1016.3 mb 0.00 in0.0 mm 0.00 in0.0 mm 0.00 in0.0 mm
09:24 AM 61.5°F16.4°C 49.4°F9.7°C 64% 2.7 mph N4.3 kmh N 9.0 mph14.5 kmh 30.01 in1016.3 mb 0.00 in0.0 mm 0.00 in0.0 mm 0.00 in0.0 mm
09:29 AM 61.5°F16.4°C 49.4°F9.7°C 64% 2.5 mph NW4.0 kmh NW 7.0 mph11.3 kmh 30.01 in1016.3 mb 0.00 in0.0 mm 0.00 in0.0 mm 0.00 in0.0 mm
09:34 AM 62.0°F16.7°C 50.3°F10.2°C 65% 1.0 mph NW1.6 kmh NW 7.0 mph11.3 kmh 30.01 in1016.3 mb 0.00 in0.0 mm 0.00 in0.0 mm 0.00 in0.0 mm
09:39 AM 62.1°F16.7°C 49.1°F9.5°C 62% 3.9 mph NW6.3 kmh NW 8.0 mph12.9 kmh 30.01 in1016.3 mb 0.00 in0.0 mm 0.00 in0.0 mm 0.00 in0.0 mm
09:44 AM 62.4°F16.9°C 49.8°F9.9°C 63% 1.6 mph NW2.6 kmh NW 8.0 mph12.9 kmh 30.01 in1016.3 mb 0.00 in0.0 mm 0.00 in0.0 mm 0.00 in0.0 mm
09:49 AM 62.5°F16.9°C 48.6°F9.2°C 60% 3.5 mph NW5.6 kmh NW 9.0 mph14.5 kmh 30.01 in1016.3 mb 0.00 in0.0 mm 0.00 in0.0 mm 0.00 in0.0 mm
09:54 AM 62.8°F17.1°C 47.9°F8.8°C 58% 3.3 mph N5.3 kmh N 9.0 mph14.5 kmh 30.01 in1016.3 mb 0.00 in0.0 mm 0.00 in0.0 mm 0.00 in0.0 mm
09:59 AM 63.2°F17.3°C 47.8°F8.8°C 57% 4.9 mph NNW7.9 kmh NNW 11.0 mph17.7 kmh 30.01 in1016.3 mb 0.00 in0.0 mm 0.00 in0.0 mm 0.00 in0.0 mm
10:04 AM 62.9°F17.2°C 48.5°F9.2°C 59% 3.2 mph N5.1 kmh N 11.0 mph17.7 kmh 30.01 in1016.3 mb 0.00 in0.0 mm 0.00 in0.0 mm 0.00 in0.0 mm
10:09 AM 63.1°F17.3°C 49.1°F9.5°C 60% 3.1 mph NNW5.0 kmh NNW 11.0 mph17.7 kmh 30.01 in1016.3 mb 0.00 in0.0 mm 0.00 in0.0 mm 0.00 in0.0 mm
10:14 AM 63.2°F17.3°C 48.8°F9.3°C 59% 3.3 mph NW5.3 kmh NW 11.0 mph17.7 kmh 30.01 in1016.3 mb 0.00 in0.0 mm 0.00 in0.0 mm 0.00 in0.0 mm
10:19 AM 63.6°F17.6°C 49.1°F9.5°C 59% 1.8 mph N2.9 kmh N 8.0 mph12.9 kmh 30.01 in1016.3 mb 0.00 in0.0 mm 0.00 in0.0 mm 0.00 in0.0 mm
10:24 AM 64.0°F17.8°C 48.6°F9.2°C 57% 3.7 mph NW6.0 kmh NW 8.0 mph12.9 kmh 30.01 in1016.3 mb 0.00 in0.0 mm 0.00 in0.0 mm 0.00 in0.0 mm
10:29 AM 64.3°F17.9°C 47.9°F8.8°C 55% 6.1 mph N9.8 kmh N 11.0 mph17.7 kmh 30.01 in1016.3 mb 0.00 in0.0 mm 0.00 in0.0 mm 0.00 in0.0 mm
10:34 AM 64.5°F18.1°C 48.6°F9.2°C 56% 3.3 mph NNW5.3 kmh NNW 11.0 mph17.7 kmh 30.01 in1016.3 mb 0.00 in0.0 mm 0.00 in0.0 mm 0.00 in0.0 mm
10:39 AM 64.6°F18.1°C 48.7°F9.3°C 56% 4.6 mph NW7.4 kmh NW 11.0 mph17.7 kmh 30.01 in1016.3 mb 0.00 in0.0 mm 0.00 in0.0 mm 0.00 in0.0 mm
10:44 AM 64.8°F18.2°C 48.8°F9.3°C 56% 3.1 mph NNW5.0 kmh NNW 11.0 mph17.7 kmh 30.01 in1016.3 mb 0.00 in0.0 mm 0.00 in0.0 mm 0.00 in0.0 mm
10:49 AM 65.0°F18.3°C 49.0°F9.4°C 56% 3.7 mph NW6.0 kmh NW 11.0 mph17.7 kmh 30.01 in1016.3 mb 0.00 in0.0 mm 0.00 in0.0 mm 0.00 in0.0 mm
10:54 AM 65.0°F18.3°C 48.0°F8.9°C 54% 4.7 mph WNW7.6 kmh WNW 11.0 mph17.7 kmh 30.01 in1016.3 mb 0.00 in0.0 mm 0.00 in0.0 mm 0.00 in0.0 mm
10:59 AM 64.9°F18.3°C 47.9°F8.8°C 54% 4.8 mph NW7.7 kmh NW 11.0 mph17.7 kmh 30.01 in1016.3 mb 0.00 in0.0 mm 0.00 in0.0 mm 0.00 in0.0 mm
11:04 AM 65.2°F18.4°C 49.1°F9.5°C 56% 3.4 mph NW5.5 kmh NW 11.0 mph17.7 kmh 30.01 in1016.3 mb 0.00 in0.0 mm 0.00 in0.0 mm 0.00 in0.0 mm
11:09 AM 65.2°F18.4°C 49.1°F9.5°C 56% 3.9 mph NW6.3 kmh NW 11.0 mph17.7 kmh 30.01 in1016.3 mb 0.00 in0.0 mm 0.00 in0.0 mm 0.00 in0.0 mm
11:14 AM 65.4°F18.6°C 49.3°F9.6°C 56% 2.5 mph NW4.0 kmh NW 11.0 mph17.7 kmh 30.01 in1016.3 mb 0.00 in0.0 mm 0.00 in0.0 mm 0.00 in0.0 mm
11:19 AM 65.8°F18.8°C 50.1°F10.1°C 57% 1.4 mph NW2.3 kmh NW 11.0 mph17.7 kmh 30.01 in1016.3 mb 0.00 in0.0 mm 0.00 in0.0 mm 0.00 in0.0 mm
11:24 AM 65.9°F18.8°C 48.8°F9.3°C 54% 3.3 mph NW5.3 kmh NW 11.0 mph17.7 kmh 30.01 in1016.3 mb 0.00 in0.0 mm 0.00 in0.0 mm 0.00 in0.0 mm
11:29 AM 66.0°F18.9°C 48.9°F9.4°C 54% 4.5 mph NW7.2 kmh NW 11.0 mph17.7 kmh 30.01 in1016.3 mb 0.00 in0.0 mm 0.00 in0.0 mm 0.00 in0.0 mm
11:34 AM 66.2°F19.0°C 48.6°F9.2°C 53% 4.4 mph NW7.1 kmh NW 11.0 mph17.7 kmh 30.01 in1016.3 mb 0.00 in0.0 mm 0.00 in0.0 mm 0.00 in0.0 mm
11:39 AM 65.9°F18.8°C 47.8°F8.8°C 52% 5.7 mph W9.2 kmh W 12.0 mph19.3 kmh 30.01 in1016.3 mb 0.00 in0.0 mm 0.00 in0.0 mm 0.00 in0.0 mm
11:44 AM 65.9°F18.8°C 48.4°F9.1°C 53% 5.2 mph WNW8.4 kmh WNW 13.0 mph20.9 kmh 30.01 in1016.3 mb 0.00 in0.0 mm 0.00 in0.0 mm 0.00 in0.0 mm
11:49 AM 66.1°F18.9°C 48.6°F9.2°C 53% 3.6 mph WNW5.8 kmh WNW 13.0 mph20.9 kmh 30.01 in1016.3 mb 0.00 in0.0 mm 0.00 in0.0 mm 0.00 in0.0 mm
11:54 AM 65.9°F18.8°C 47.8°F8.8°C 52% 3.7 mph WNW6.0 kmh WNW 13.0 mph20.9 kmh 30.01 in1016.3 mb 0.00 in0.0 mm 0.00 in0.0 mm 0.00 in0.0 mm
11:59 AM 66.5°F19.2°C 48.9°F9.4°C 53% 4.1 mph W6.6 kmh W 13.0 mph20.9 kmh 30.01 in1016.3 mb 0.00 in0.0 mm 0.00 in0.0 mm 0.00 in0.0 mm
12:04 PM 67.1°F19.5°C 47.9°F8.8°C 50% 4.1 mph NW6.6 kmh NW 11.0 mph17.7 kmh 30.01 in1016.3 mb 0.00 in0.0 mm 0.00 in0.0 mm 0.00 in0.0 mm
12:09 PM 67.0°F19.4°C 47.8°F8.8°C 50% 2.2 mph NW3.5 kmh NW 11.0 mph17.7 kmh 30.01 in1016.3 mb 0.00 in0.0 mm 0.00 in0.0 mm 0.00 in0.0 mm
12:14 PM 67.3°F19.6°C 48.6°F9.2°C 51% 2.8 mph NW4.5 kmh NW 10.0 mph16.1 kmh 30.01 in1016.3 mb 0.00 in0.0 mm 0.00 in0.0 mm 0.00 in0.0 mm
12:19 PM 67.4°F19.7°C 47.0°F8.3°C 48% 4.7 mph NW7.6 kmh NW 10.0 mph16.1 kmh 30.01 in1016.3 mb 0.00 in0.0 mm 0.00 in0.0 mm 0.00 in0.0 mm
12:24 PM 67.3°F19.6°C 47.5°F8.6°C 49% 4.6 mph NNW7.4 kmh NNW 12.0 mph19.3 kmh 30.01 in1016.3 mb 0.00 in0.0 mm 0.00 in0.0 mm 0.00 in0.0 mm
12:29 PM 67.4°F19.7°C 48.2°F9.0°C 50% 3.7 mph NNW6.0 kmh NNW 12.0 mph19.3 kmh 30.01 in1016.3 mb 0.00 in0.0 mm 0.00 in0.0 mm 0.00 in0.0 mm
12:34 PM 67.5°F19.7°C 48.2°F9.0°C 50% 4.9 mph WNW7.9 kmh WNW 13.0 mph20.9 kmh 30.01 in1016.3 mb 0.00 in0.0 mm 0.00 in0.0 mm 0.00 in0.0 mm
12:39 PM 68.2°F20.1°C 48.8°F9.3°C 50% 2.6 mph WNW4.2 kmh WNW 13.0 mph20.9 kmh 30.01 in1016.3 mb 0.00 in0.0 mm 0.00 in0.0 mm 0.00 in0.0 mm
12:44 PM 68.5°F20.3°C 47.5°F8.6°C 47% 2.8 mph NW4.5 kmh NW 13.0 mph20.9 kmh 30.01 in1016.3 mb 0.00 in0.0 mm 0.00 in0.0 mm 0.00 in0.0 mm
12:49 PM 68.2°F20.1°C 48.3°F9.1°C 49% 4.1 mph NW6.6 kmh NW 13.0 mph20.9 kmh 30.00 in1015.9 mb 0.00 in0.0 mm 0.00 in0.0 mm 0.00 in0.0 mm
12:54 PM 68.6°F20.3°C 47.0°F8.3°C 46% 4.4 mph NW7.1 kmh NW 12.0 mph19.3 kmh 30.00 in1015.9 mb 0.00 in0.0 mm 0.00 in0.0 mm 0.00 in0.0 mm
12:59 PM 68.4°F20.2°C 48.0°F8.9°C 48% 4.5 mph NW7.2 kmh NW 12.0 mph19.3 kmh 30.00 in1015.9 mb 0.00 in0.0 mm 0.00 in0.0 mm 0.00 in0.0 mm
01:04 PM 68.3°F20.2°C 47.3°F8.5°C 47% 2.9 mph N4.7 kmh N 12.0 mph19.3 kmh 30.00 in1015.9 mb 0.00 in0.0 mm 0.00 in0.0 mm 0.00 in0.0 mm
01:09 PM 68.5°F20.3°C 46.9°F8.3°C 46% 4.1 mph WNW6.6 kmh WNW 12.0 mph19.3 kmh 30.00 in1015.9 mb 0.00 in0.0 mm 0.00 in0.0 mm 0.00 in0.0 mm
01:14 PM 68.4°F20.2°C 46.2°F7.9°C 45% 4.7 mph NW7.6 kmh NW 10.0 mph16.1 kmh 30.00 in1015.9 mb 0.00 in0.0 mm 0.00 in0.0 mm 0.00 in0.0 mm
01:19 PM 68.4°F20.2°C 46.8°F8.2°C 46% 3.5 mph WNW5.6 kmh WNW 10.0 mph16.1 kmh 30.00 in1015.9 mb 0.00 in0.0 mm 0.00 in0.0 mm 0.00 in0.0 mm
01:24 PM 68.8°F20.4°C 47.2°F8.4°C 46% 3.6 mph W5.8 kmh W 10.0 mph16.1 kmh 30.00 in1015.9 mb 0.00 in0.0 mm 0.00 in0.0 mm 0.00 in0.0 mm
01:29 PM 69.4°F20.8°C 48.3°F9.1°C 47% 3.9 mph NW6.3 kmh NW 9.0 mph14.5 kmh 30.00 in1015.9 mb 0.00 in0.0 mm 0.00 in0.0 mm 0.00 in0.0 mm
01:34 PM 69.3°F20.7°C 47.6°F8.7°C 46% 3.9 mph WSW6.3 kmh WSW 10.0 mph16.1 kmh 29.99 in1015.6 mb 0.00 in0.0 mm 0.00 in0.0 mm 0.00 in0.0 mm
01:39 PM 69.6°F20.9°C 47.3°F8.5°C 45% 4.6 mph NNW7.4 kmh NNW 12.0 mph19.3 kmh 29.99 in1015.6 mb 0.00 in0.0 mm 0.00 in0.0 mm 0.00 in0.0 mm
01:44 PM 69.6°F20.9°C 47.9°F8.8°C 46% 3.4 mph N5.5 kmh N 12.0 mph19.3 kmh 29.99 in1015.6 mb 0.00 in0.0 mm 0.00 in0.0 mm 0.00 in0.0 mm
01:49 PM 69.4°F20.8°C 47.7°F8.7°C 46% 1.3 mph NW2.1 kmh NW 12.0 mph19.3 kmh 29.99 in1015.6 mb 0.00 in0.0 mm 0.00 in0.0 mm 0.00 in0.0 mm
01:54 PM 69.8°F21.0°C 47.5°F8.6°C 45% 4.7 mph WNW7.6 kmh WNW 12.0 mph19.3 kmh 29.99 in1015.6 mb 0.00 in0.0 mm 0.00 in0.0 mm 0.00 in0.0 mm
01:59 PM 70.0°F21.1°C 48.8°F9.3°C 47% 3.8 mph NW6.1 kmh NW 12.0 mph19.3 kmh 29.99 in1015.6 mb 0.00 in0.0 mm 0.00 in0.0 mm 0.00 in0.0 mm
02:04 PM 70.1°F21.2°C 48.9°F9.4°C 47% 4.5 mph WNW7.2 kmh WNW 12.0 mph19.3 kmh 29.98 in1015.2 mb 0.00 in0.0 mm 0.00 in0.0 mm 0.00 in0.0 mm
02:09 PM 70.4°F21.3°C 49.2°F9.6°C 47% 4.1 mph NW6.6 kmh NW 13.0 mph20.9 kmh 29.98 in1015.2 mb 0.00 in0.0 mm 0.00 in0.0 mm 0.00 in0.0 mm
02:14 PM 70.5°F21.4°C 49.3°F9.6°C 47% 4.8 mph W7.7 kmh W 13.0 mph20.9 kmh 29.98 in1015.2 mb 0.00 in0.0 mm 0.00 in0.0 mm 0.00 in0.0 mm
02:19 PM 70.5°F21.4°C 48.7°F9.3°C 46% 4.9 mph WNW7.9 kmh WNW 13.0 mph20.9 kmh 29.98 in1015.2 mb 0.00 in0.0 mm 0.00 in0.0 mm 0.00 in0.0 mm
02:24 PM 69.8°F21.0°C 49.2°F9.6°C 48% 2.9 mph WNW4.7 kmh WNW 13.0 mph20.9 kmh 29.98 in1015.2 mb 0.00 in0.0 mm 0.00 in0.0 mm 0.00 in0.0 mm
02:29 PM 70.7°F21.5°C 50.1°F10.1°C 48% 2.7 mph NNW4.3 kmh NNW 11.0 mph17.7 kmh 29.98 in1015.2 mb 0.00 in0.0 mm 0.00 in0.0 mm 0.00 in0.0 mm
02:34 PM 70.9°F21.6°C 49.1°F9.5°C 46% 3.1 mph W5.0 kmh W 11.0 mph17.7 kmh 29.98 in1015.2 mb 0.00 in0.0 mm 0.00 in0.0 mm 0.00 in0.0 mm
02:39 PM 71.1°F21.7°C 51.0°F10.6°C 49% 2.7 mph NW4.3 kmh NW 9.0 mph14.5 kmh 29.98 in1015.2 mb 0.00 in0.0 mm 0.00 in0.0 mm 0.00 in0.0 mm
02:44 PM 71.0°F21.7°C 46.7°F8.2°C 42% 4.8 mph NNW7.7 kmh NNW 12.0 mph19.3 kmh 29.97 in1014.9 mb 0.00 in0.0 mm 0.00 in0.0 mm 0.00 in0.0 mm
02:49 PM 71.1°F21.7°C 47.5°F8.6°C 43% 2.6 mph N4.2 kmh N 12.0 mph19.3 kmh 29.97 in1014.9 mb 0.00 in0.0 mm 0.00 in0.0 mm 0.00 in0.0 mm
02:54 PM 71.3°F21.8°C 46.4°F8.0°C 41% 4.1 mph NW6.6 kmh NW 12.0 mph19.3 kmh 29.97 in1014.9 mb 0.00 in0.0 mm 0.00 in0.0 mm 0.00 in0.0 mm
02:59 PM 71.5°F21.9°C 47.1°F8.4°C 42% 4.8 mph N7.7 kmh N 12.0 mph19.3 kmh 29.97 in1014.9 mb 0.00 in0.0 mm 0.00 in0.0 mm 0.00 in0.0 mm
03:04 PM 71.2°F21.8°C 48.1°F8.9°C 44% 2.9 mph N4.7 kmh N 12.0 mph19.3 kmh 29.97 in1014.9 mb 0.00 in0.0 mm 0.00 in0.0 mm 0.00 in0.0 mm
03:09 PM 71.2°F21.8°C 47.5°F8.6°C 43% 4.6 mph NE7.4 kmh NE 12.0 mph19.3 kmh 29.97 in1014.9 mb 0.00 in0.0 mm 0.00 in0.0 mm 0.00 in0.0 mm
03:14 PM 71.0°F21.7°C 47.9°F8.8°C 44% 2.0 mph NE3.2 kmh NE 11.0 mph17.7 kmh 29.97 in1014.9 mb 0.00 in0.0 mm 0.00 in0.0 mm 0.00 in0.0 mm
03:19 PM 71.4°F21.9°C 48.3°F9.1°C 44% 2.1 mph N3.4 kmh N 11.0 mph17.7 kmh 29.97 in1014.9 mb 0.00 in0.0 mm 0.00 in0.0 mm 0.00 in0.0 mm
03:24 PM 71.6°F22.0°C 47.9°F8.8°C 43% 6.7 mph N10.8 kmh N 13.0 mph20.9 kmh 29.96 in1014.6 mb 0.00 in0.0 mm 0.00 in0.0 mm 0.00 in0.0 mm
03:29 PM 71.9°F22.2°C 47.5°F8.6°C 42% 5.9 mph NW9.5 kmh NW 14.0 mph22.5 kmh 29.97 in1014.9 mb 0.00 in0.0 mm 0.00 in0.0 mm 0.00 in0.0 mm
03:34 PM 71.8°F22.1°C 48.0°F8.9°C 43% 2.7 mph NNW4.3 kmh NNW 14.0 mph22.5 kmh 29.97 in1014.9 mb 0.00 in0.0 mm 0.00 in0.0 mm 0.00 in0.0 mm
03:39 PM 71.7°F22.1°C 47.9°F8.8°C 43% 2.1 mph N3.4 kmh N 14.0 mph22.5 kmh 29.96 in1014.6 mb 0.00 in0.0 mm 0.00 in0.0 mm 0.00 in0.0 mm
03:44 PM 72.1°F22.3°C 49.0°F9.4°C 44% 5.3 mph NNE8.5 kmh NNE 14.0 mph22.5 kmh 29.97 in1014.9 mb 0.00 in0.0 mm 0.00 in0.0 mm 0.00 in0.0 mm
03:49 PM 72.3°F22.4°C 49.1°F9.5°C 44% 3.0 mph N4.8 kmh N 12.0 mph19.3 kmh 29.97 in1014.9 mb 0.00 in0.0 mm 0.00 in0.0 mm 0.00 in0.0 mm
03:54 PM 72.3°F22.4°C 47.2°F8.4°C 41% 5.3 mph WNW8.5 kmh WNW 12.0 mph19.3 kmh 29.96 in1014.6 mb 0.00 in0.0 mm 0.00 in0.0 mm 0.00 in0.0 mm
03:59 PM 72.2°F22.3°C 47.8°F8.8°C 42% 2.1 mph WNW3.4 kmh WNW 12.0 mph19.3 kmh 29.96 in1014.6 mb 0.00 in0.0 mm 0.00 in0.0 mm 0.00 in0.0 mm
04:04 PM 72.8°F22.7°C 47.6°F8.7°C 41% 1.2 mph NW1.9 kmh NW 11.0 mph17.7 kmh 29.95 in1014.2 mb 0.00 in0.0 mm 0.00 in0.0 mm 0.00 in0.0 mm
04:09 PM 72.8°F22.7°C 47.6°F8.7°C 41% 3.4 mph NW5.5 kmh NW 11.0 mph17.7 kmh 29.96 in1014.6 mb 0.00 in0.0 mm 0.00 in0.0 mm 0.00 in0.0 mm
04:14 PM 72.5°F22.5°C 46.7°F8.2°C 40% 3.6 mph W5.8 kmh W 9.0 mph14.5 kmh 29.95 in1014.2 mb 0.00 in0.0 mm 0.00 in0.0 mm 0.00 in0.0 mm
04:19 PM 72.7°F22.6°C 49.5°F9.7°C 44% 1.6 mph N2.6 kmh N 9.0 mph14.5 kmh 29.95 in1014.2 mb 0.00 in0.0 mm 0.00 in0.0 mm 0.00 in0.0 mm
04:24 PM 72.8°F22.7°C 49.6°F9.8°C 44% 3.1 mph NW5.0 kmh NW 9.0 mph14.5 kmh 29.95 in1014.2 mb 0.00 in0.0 mm 0.00 in0.0 mm 0.00 in0.0 mm
04:29 PM 72.5°F22.5°C 48.7°F9.3°C 43% 2.3 mph W3.7 kmh W 9.0 mph14.5 kmh 29.95 in1014.2 mb 0.00 in0.0 mm 0.00 in0.0 mm 0.00 in0.0 mm
04:34 PM 72.3°F22.4°C 47.8°F8.8°C 42% 2.2 mph NE3.5 kmh NE 8.0 mph12.9 kmh 29.95 in1014.2 mb 0.00 in0.0 mm 0.00 in0.0 mm 0.00 in0.0 mm
04:39 PM 72.5°F22.5°C 47.4°F8.6°C 41% 3.6 mph W5.8 kmh W 8.0 mph12.9 kmh 29.95 in1014.2 mb 0.00 in0.0 mm 0.00 in0.0 mm 0.00 in0.0 mm
04:44 PM 72.6°F22.6°C 48.1°F8.9°C 42% 2.1 mph NW3.4 kmh NW 7.0 mph11.3 kmh 29.95 in1014.2 mb 0.00 in0.0 mm 0.00 in0.0 mm 0.00 in0.0 mm
04:49 PM 72.7°F22.6°C 48.2°F9.0°C 42% 2.8 mph N4.5 kmh N 8.0 mph12.9 kmh 29.95 in1014.2 mb 0.00 in0.0 mm 0.00 in0.0 mm 0.00 in0.0 mm
04:54 PM 73.0°F22.8°C 47.8°F8.8°C 41% 2.8 mph N4.5 kmh N 8.0 mph12.9 kmh 29.95 in1014.2 mb 0.00 in0.0 mm 0.00 in0.0 mm 0.00 in0.0 mm
04:59 PM 73.0°F22.8°C 49.1°F9.5°C 43% 2.7 mph N4.3 kmh N 8.0 mph12.9 kmh 29.94 in1013.9 mb 0.00 in0.0 mm 0.00 in0.0 mm 0.00 in0.0 mm
05:04 PM 73.0°F22.8°C 49.1°F9.5°C 43% 2.0 mph WNW3.2 kmh WNW 8.0 mph12.9 kmh 29.95 in1014.2 mb 0.00 in0.0 mm 0.00 in0.0 mm 0.00 in0.0 mm
05:09 PM 73.2°F22.9°C 48.7°F9.3°C 42% 1.0 mph W1.6 kmh W 7.0 mph11.3 kmh 29.95 in1014.2 mb 0.00 in0.0 mm 0.00 in0.0 mm 0.00 in0.0 mm
05:14 PM 73.2°F22.9°C 49.4°F9.7°C 43% 2.5 mph W4.0 kmh W 7.0 mph11.3 kmh 29.95 in1014.2 mb 0.00 in0.0 mm 0.00 in0.0 mm 0.00 in0.0 mm
05:19 PM 73.2°F22.9°C 48.7°F9.3°C 42% 2.5 mph NW4.0 kmh NW 7.0 mph11.3 kmh 29.94 in1013.9 mb 0.00 in0.0 mm 0.00 in0.0 mm 0.00 in0.0 mm
05:24 PM 73.5°F23.1°C 48.9°F9.4°C 42% 2.4 mph NW3.9 kmh NW 7.0 mph11.3 kmh 29.94 in1013.9 mb 0.00 in0.0 mm 0.00 in0.0 mm 0.00 in0.0 mm
05:29 PM 73.4°F23.0°C 48.2°F9.0°C 41% 3.6 mph NW5.8 kmh NW 8.0 mph12.9 kmh 29.95 in1014.2 mb 0.00 in0.0 mm 0.00 in0.0 mm 0.00 in0.0 mm
05:34 PM 73.2°F22.9°C 48.7°F9.3°C 42% 3.2 mph NW5.1 kmh NW 8.0 mph12.9 kmh 29.94 in1013.9 mb 0.00 in0.0 mm 0.00 in0.0 mm 0.00 in0.0 mm
05:39 PM 72.9°F22.7°C 47.7°F8.7°C 41% 2.0 mph W3.2 kmh W 8.0 mph12.9 kmh 29.94 in1013.9 mb 0.00 in0.0 mm 0.00 in0.0 mm 0.00 in0.0 mm
05:44 PM 73.6°F23.1°C 49.0°F9.4°C 42% 1.0 mph WSW1.6 kmh WSW 8.0 mph12.9 kmh 29.94 in1013.9 mb 0.00 in0.0 mm 0.00 in0.0 mm 0.00 in0.0 mm
05:49 PM 73.8°F23.2°C 49.2°F9.6°C 42% 2.7 mph NW4.3 kmh NW 6.0 mph9.7 kmh 29.95 in1014.2 mb 0.00 in0.0 mm 0.00 in0.0 mm 0.00 in0.0 mm
05:54 PM 73.6°F23.1°C 49.0°F9.4°C 42% 3.0 mph NNW4.8 kmh NNW 9.0 mph14.5 kmh 29.94 in1013.9 mb 0.00 in0.0 mm 0.00 in0.0 mm 0.00 in0.0 mm
05:59 PM 73.1°F22.8°C 49.2°F9.6°C 43% 2.5 mph NW4.0 kmh NW 10.0 mph16.1 kmh 29.94 in1013.9 mb 0.00 in0.0 mm 0.00 in0.0 mm 0.00 in0.0 mm
06:04 PM 73.6°F23.1°C 49.0°F9.4°C 42% 1.0 mph N1.6 kmh N 10.0 mph16.1 kmh 29.94 in1013.9 mb 0.00 in0.0 mm 0.00 in0.0 mm 0.00 in0.0 mm
06:09 PM 73.9°F23.3°C 49.9°F9.9°C 43% 2.2 mph WNW3.5 kmh WNW 10.0 mph16.1 kmh 29.94 in1013.9 mb 0.00 in0.0 mm 0.00 in0.0 mm 0.00 in0.0 mm
06:14 PM 73.7°F23.2°C 49.1°F9.5°C 42% 2.1 mph NW3.4 kmh NW 8.0 mph12.9 kmh 29.94 in1013.9 mb 0.00 in0.0 mm 0.00 in0.0 mm 0.00 in0.0 mm
06:19 PM 73.3°F22.9°C 48.1°F8.9°C 41% 1.9 mph NNW3.1 kmh NNW 6.0 mph9.7 kmh 29.94 in1013.9 mb 0.00 in0.0 mm 0.00 in0.0 mm 0.00 in0.0 mm
06:24 PM 73.1°F22.8°C 48.6°F9.2°C 42% 2.3 mph WSW3.7 kmh WSW 8.0 mph12.9 kmh 29.94 in1013.9 mb 0.00 in0.0 mm 0.00 in0.0 mm 0.00 in0.0 mm
06:29 PM 72.9°F22.7°C 47.7°F8.7°C 41% 2.5 mph NW4.0 kmh NW 8.0 mph12.9 kmh 29.94 in1013.9 mb 0.00 in0.0 mm 0.00 in0.0 mm 0.00 in0.0 mm
06:34 PM 72.8°F22.7°C 48.3°F9.1°C 42% 2.7 mph WNW4.3 kmh WNW 8.0 mph12.9 kmh 29.94 in1013.9 mb 0.00 in0.0 mm 0.00 in0.0 mm 0.00 in0.0 mm
06:39 PM 72.7°F22.6°C 47.5°F8.6°C 41% 3.4 mph NW5.5 kmh NW 8.0 mph12.9 kmh 29.94 in1013.9 mb 0.00 in0.0 mm 0.00 in0.0 mm 0.00 in0.0 mm
06:44 PM 72.7°F22.6°C 48.2°F9.0°C 42% 2.9 mph W4.7 kmh W 8.0 mph12.9 kmh 29.95 in1014.2 mb 0.00 in0.0 mm 0.00 in0.0 mm 0.00 in0.0 mm
06:49 PM 72.7°F22.6°C 48.2°F9.0°C 42% 3.6 mph W5.8 kmh W 8.0 mph12.9 kmh 29.95 in1014.2 mb 0.00 in0.0 mm 0.00 in0.0 mm 0.00 in0.0 mm
06:54 PM 72.6°F22.6°C 49.4°F9.7°C 44% 2.7 mph W4.3 kmh W 7.0 mph11.3 kmh 29.95 in1014.2 mb 0.00 in0.0 mm 0.00 in0.0 mm 0.00 in0.0 mm
06:59 PM 72.7°F22.6°C 48.9°F9.4°C 43% 2.9 mph NW4.7 kmh NW 7.0 mph11.3 kmh 29.95 in1014.2 mb 0.00 in0.0 mm 0.00 in0.0 mm 0.00 in0.0 mm
07:04 PM 72.6°F22.6°C 48.8°F9.3°C 43% 2.9 mph NNW4.7 kmh NNW 8.0 mph12.9 kmh 29.95 in1014.2 mb 0.00 in0.0 mm 0.00 in0.0 mm 0.00 in0.0 mm
07:09 PM 72.6°F22.6°C 48.2°F9.0°C 42% 2.1 mph NW3.4 kmh NW 8.0 mph12.9 kmh 29.95 in1014.2 mb 0.00 in0.0 mm 0.00 in0.0 mm 0.00 in0.0 mm
07:14 PM 72.7°F22.6°C 48.9°F9.4°C 43% 1.5 mph NW2.4 kmh NW 8.0 mph12.9 kmh 29.95 in1014.2 mb 0.00 in0.0 mm 0.00 in0.0 mm 0.00 in0.0 mm
07:19 PM 72.7°F22.6°C 49.5°F9.7°C 44% 1.5 mph NW2.4 kmh NW 7.0 mph11.3 kmh 29.96 in1014.6 mb 0.00 in0.0 mm 0.00 in0.0 mm 0.00 in0.0 mm
07:24 PM 72.7°F22.6°C 48.9°F9.4°C 43% 2.1 mph NW3.4 kmh NW 5.0 mph8.0 kmh 29.96 in1014.6 mb 0.00 in0.0 mm 0.00 in0.0 mm 0.00 in0.0 mm
07:29 PM 72.8°F22.7°C 48.3°F9.1°C 42% 3.1 mph WNW5.0 kmh WNW 7.0 mph11.3 kmh 29.96 in1014.6 mb 0.00 in0.0 mm 0.00 in0.0 mm 0.00 in0.0 mm
07:34 PM 72.3°F22.4°C 48.5°F9.2°C 43% 3.4 mph W5.5 kmh W 7.0 mph11.3 kmh 29.96 in1014.6 mb 0.00 in0.0 mm 0.00 in0.0 mm 0.00 in0.0 mm
07:39 PM 72.4°F22.4°C 49.2°F9.6°C 44% 1.3 mph W2.1 kmh W 7.0 mph11.3 kmh 29.96 in1014.6 mb 0.00 in0.0 mm 0.00 in0.0 mm 0.00 in0.0 mm
07:44 PM 72.3°F22.4°C 49.1°F9.5°C 44% 2.7 mph W4.3 kmh W 7.0 mph11.3 kmh 29.96 in1014.6 mb 0.00 in0.0 mm 0.00 in0.0 mm 0.00 in0.0 mm
07:49 PM 72.0°F22.2°C 48.9°F9.4°C 44% 2.3 mph NW3.7 kmh NW 7.0 mph11.3 kmh 29.96 in1014.6 mb 0.00 in0.0 mm 0.00 in0.0 mm 0.00 in0.0 mm
07:54 PM 71.8°F22.1°C 48.7°F9.3°C 44% 1.9 mph WNW3.1 kmh WNW 6.0 mph9.7 kmh 29.97 in1014.9 mb 0.00 in0.0 mm 0.00 in0.0 mm 0.00 in0.0 mm
07:59 PM 71.6°F22.0°C 49.1°F9.5°C 45% 1.6 mph WNW2.6 kmh WNW 6.0 mph9.7 kmh 29.97 in1014.9 mb 0.00 in0.0 mm 0.00 in0.0 mm 0.00 in0.0 mm
08:04 PM 71.4°F21.9°C 49.5°F9.7°C 46% 1.1 mph WNW1.8 kmh WNW 6.0 mph9.7 kmh 29.97 in1014.9 mb 0.00 in0.0 mm 0.00 in0.0 mm 0.00 in0.0 mm
08:10 PM 71.1°F21.7°C 49.9°F9.9°C 47% 1.6 mph NW2.6 kmh NW 5.0 mph8.0 kmh 29.97 in1014.9 mb 0.00 in0.0 mm 0.00 in0.0 mm 0.00 in0.0 mm
08:14 PM 70.7°F21.5°C 49.5°F9.7°C 47% Calm Calm 4.0 mph6.4 kmh 29.97 in1014.9 mb 0.00 in0.0 mm 0.00 in0.0 mm 0.00 in0.0 mm
08:19 PM 70.3°F21.3°C 49.1°F9.5°C 47% 1.0 mph NW1.6 kmh NW 4.0 mph6.4 kmh 29.97 in1014.9 mb 0.00 in0.0 mm 0.00 in0.0 mm 0.00 in0.0 mm
08:24 PM 69.8°F21.0°C 48.7°F9.3°C 47% 1.0 mph NW1.6 kmh NW 4.0 mph6.4 kmh 29.97 in1014.9 mb 0.00 in0.0 mm 0.00 in0.0 mm 0.00 in0.0 mm
08:29 PM 69.2°F20.7°C 48.7°F9.3°C 48% 1.6 mph NW2.6 kmh NW 4.0 mph6.4 kmh 29.98 in1015.2 mb 0.00 in0.0 mm 0.00 in0.0 mm 0.00 in0.0 mm
08:34 PM 68.8°F20.4°C 48.9°F9.4°C 49% 1.4 mph NW2.3 kmh NW 4.0 mph6.4 kmh 29.98 in1015.2 mb 0.00 in0.0 mm 0.00 in0.0 mm 0.00 in0.0 mm
08:40 PM 68.3°F20.2°C 48.4°F9.1°C 49% 1.1 mph NW1.8 kmh NW 4.0 mph6.4 kmh 29.98 in1015.2 mb 0.00 in0.0 mm 0.00 in0.0 mm 0.00 in0.0 mm
08:44 PM 68.1°F20.1°C 48.2°F9.0°C 49% 1.8 mph NW2.9 kmh NW 4.0 mph6.4 kmh 29.98 in1015.2 mb 0.00 in0.0 mm 0.00 in0.0 mm 0.00 in0.0 mm
08:49 PM 68.0°F20.0°C 48.7°F9.3°C 50% 1.4 mph WNW2.3 kmh WNW 5.0 mph8.0 kmh 29.98 in1015.2 mb 0.00 in0.0 mm 0.00 in0.0 mm 0.00 in0.0 mm
08:55 PM 67.7°F19.8°C 48.4°F9.1°C 50% 1.6 mph NW2.6 kmh NW 5.0 mph8.0 kmh 29.98 in1015.2 mb 0.00 in0.0 mm 0.00 in0.0 mm 0.00 in0.0 mm
09:00 PM 67.5°F19.7°C 48.8°F9.3°C 51% 1.6 mph WNW2.6 kmh WNW 5.0 mph8.0 kmh 29.99 in1015.6 mb 0.00 in0.0 mm 0.00 in0.0 mm 0.00 in0.0 mm
09:05 PM 67.3°F19.6°C 49.1°F9.5°C 52% 1.7 mph NW2.7 kmh NW 5.0 mph8.0 kmh 29.99 in1015.6 mb 0.00 in0.0 mm 0.00 in0.0 mm 0.00 in0.0 mm
09:09 PM 67.2°F19.6°C 49.1°F9.5°C 52% 1.5 mph NW2.4 kmh NW 4.0 mph6.4 kmh 29.99 in1015.6 mb 0.00 in0.0 mm 0.00 in0.0 mm 0.00 in0.0 mm
09:15 PM 67.0°F19.4°C 48.9°F9.4°C 52% 1.4 mph WNW2.3 kmh WNW 4.0 mph6.4 kmh 29.99 in1015.6 mb 0.00 in0.0 mm 0.00 in0.0 mm 0.00 in0.0 mm
09:20 PM 66.9°F19.4°C 49.3°F9.6°C 53% 2.0 mph NW3.2 kmh NW 4.0 mph6.4 kmh 30.00 in1015.9 mb 0.00 in0.0 mm 0.00 in0.0 mm 0.00 in0.0 mm
09:25 PM 66.8°F19.3°C 49.2°F9.6°C 53% 1.7 mph NW2.7 kmh NW 5.0 mph8.0 kmh 30.00 in1015.9 mb 0.00 in0.0 mm 0.00 in0.0 mm 0.00 in0.0 mm
09:30 PM 66.7°F19.3°C 49.1°F9.5°C 53% 1.9 mph NW3.1 kmh NW 6.0 mph9.7 kmh 30.00 in1015.9 mb 0.00 in0.0 mm 0.00 in0.0 mm 0.00 in0.0 mm
09:35 PM 66.6°F19.2°C 49.0°F9.4°C 53% 2.7 mph NW4.3 kmh NW 6.0 mph9.7 kmh 30.00 in1015.9 mb 0.00 in0.0 mm 0.00 in0.0 mm 0.00 in0.0 mm
09:40 PM 66.4°F19.1°C 49.3°F9.6°C 54% 2.7 mph NW4.3 kmh NW 6.0 mph9.7 kmh 30.00 in1015.9 mb 0.00 in0.0 mm 0.00 in0.0 mm 0.00 in0.0 mm
09:45 PM 66.2°F19.0°C 49.2°F9.6°C 54% 2.2 mph NW3.5 kmh NW 6.0 mph9.7 kmh 30.00 in1015.9 mb 0.00 in0.0 mm 0.00 in0.0 mm 0.00 in0.0 mm
09:50 PM 66.0°F18.9°C 49.0°F9.4°C 54% 2.0 mph NW3.2 kmh NW 6.0 mph9.7 kmh 30.00 in1015.9 mb 0.00 in0.0 mm 0.00 in0.0 mm 0.00 in0.0 mm
09:55 PM 65.8°F18.8°C 48.8°F9.3°C 54% 1.7 mph NNW2.7 kmh NNW 5.0 mph8.0 kmh 30.00 in1015.9 mb 0.00 in0.0 mm 0.00 in0.0 mm 0.00 in0.0 mm
10:00 PM 65.7°F18.7°C 48.7°F9.3°C 54% 1.7 mph NW2.7 kmh NW 6.0 mph9.7 kmh 30.00 in1015.9 mb 0.00 in0.0 mm 0.00 in0.0 mm 0.00 in0.0 mm
10:05 PM 65.5°F18.6°C 48.5°F9.2°C 54% 2.2 mph NW3.5 kmh NW 6.0 mph9.7 kmh 30.00 in1015.9 mb 0.00 in0.0 mm 0.00 in0.0 mm 0.00 in0.0 mm
10:10 PM 65.3°F18.5°C 48.8°F9.3°C 55% 1.4 mph NW2.3 kmh NW 6.0 mph9.7 kmh 30.00 in1015.9 mb 0.00 in0.0 mm 0.00 in0.0 mm 0.00 in0.0 mm
10:15 PM 65.1°F18.4°C 48.6°F9.2°C 55% 1.7 mph NW2.7 kmh NW 6.0 mph9.7 kmh 30.01 in1016.3 mb 0.00 in0.0 mm 0.00 in0.0 mm 0.00 in0.0 mm
10:20 PM 65.0°F18.3°C 48.5°F9.2°C 55% 1.8 mph NW2.9 kmh NW 5.0 mph8.0 kmh 30.01 in1016.3 mb 0.00 in0.0 mm 0.00 in0.0 mm 0.00 in0.0 mm
10:25 PM 64.9°F18.3°C 48.4°F9.1°C 55% 2.6 mph NW4.2 kmh NW 5.0 mph8.0 kmh 30.01 in1016.3 mb 0.00 in0.0 mm 0.00 in0.0 mm 0.00 in0.0 mm
10:30 PM 64.8°F18.2°C 48.4°F9.1°C 55% 1.6 mph NW2.6 kmh NW 6.0 mph9.7 kmh 30.01 in1016.3 mb 0.00 in0.0 mm 0.00 in0.0 mm 0.00 in0.0 mm
10:35 PM 64.6°F18.1°C 48.2°F9.0°C 55% 2.0 mph NW3.2 kmh NW 6.0 mph9.7 kmh 30.01 in1016.3 mb 0.00 in0.0 mm 0.00 in0.0 mm 0.00 in0.0 mm
10:40 PM 64.5°F18.1°C 48.6°F9.2°C 56% 1.2 mph NNW1.9 kmh NNW 6.0 mph9.7 kmh 30.01 in1016.3 mb 0.00 in0.0 mm 0.00 in0.0 mm 0.00 in0.0 mm
10:45 PM 64.3°F17.9°C 48.4°F9.1°C 56% 2.0 mph NW3.2 kmh NW 6.0 mph9.7 kmh 30.01 in1016.3 mb 0.00 in0.0 mm 0.00 in0.0 mm 0.00 in0.0 mm
10:50 PM 64.1°F17.8°C 48.7°F9.3°C 57% 1.6 mph NW2.6 kmh NW 6.0 mph9.7 kmh 30.01 in1016.3 mb 0.00 in0.0 mm 0.00 in0.0 mm 0.00 in0.0 mm
10:55 PM 63.9°F17.7°C 48.5°F9.2°C 57% 2.8 mph NW4.5 kmh NW 6.0 mph9.7 kmh 30.01 in1016.3 mb 0.00 in0.0 mm 0.00 in0.0 mm 0.00 in0.0 mm
11:00 PM 63.7°F17.6°C 48.8°F9.3°C 58% 2.0 mph NW3.2 kmh NW 6.0 mph9.7 kmh 30.01 in1016.3 mb 0.00 in0.0 mm 0.00 in0.0 mm 0.00 in0.0 mm
11:05 PM 63.5°F17.5°C 49.1°F9.5°C 59% 2.2 mph NW3.5 kmh NW 6.0 mph9.7 kmh 30.01 in1016.3 mb 0.00 in0.0 mm 0.00 in0.0 mm 0.00 in0.0 mm
11:10 PM 63.3°F17.4°C 48.9°F9.4°C 59% 2.1 mph NW3.4 kmh NW 6.0 mph9.7 kmh 30.01 in1016.3 mb 0.00 in0.0 mm 0.00 in0.0 mm 0.00 in0.0 mm
11:15 PM 63.2°F17.3°C 48.8°F9.3°C 59% 1.7 mph NW2.7 kmh NW 6.0 mph9.7 kmh 30.01 in1016.3 mb 0.00 in0.0 mm 0.00 in0.0 mm 0.00 in0.0 mm
11:20 PM 63.0°F17.2°C 49.0°F9.4°C 60% 2.4 mph N3.9 kmh N 6.0 mph9.7 kmh 30.01 in1016.3 mb 0.00 in0.0 mm 0.00 in0.0 mm 0.00 in0.0 mm
11:25 PM 62.8°F17.1°C 48.8°F9.3°C 60% 1.7 mph NW2.7 kmh NW 6.0 mph9.7 kmh 30.00 in1015.9 mb 0.00 in0.0 mm 0.00 in0.0 mm 0.00 in0.0 mm
11:30 PM 62.5°F16.9°C 49.0°F9.4°C 61% 2.2 mph NNW3.5 kmh NNW 5.0 mph8.0 kmh 30.00 in1015.9 mb 0.00 in0.0 mm 0.00 in0.0 mm 0.00 in0.0 mm
11:35 PM 62.2°F16.8°C 48.7°F9.3°C 61% 2.2 mph NW3.5 kmh NW 5.0 mph8.0 kmh 30.00 in1015.9 mb 0.00 in0.0 mm 0.00 in0.0 mm 0.00 in0.0 mm
11:40 PM 62.1°F16.7°C 49.1°F9.5°C 62% 1.8 mph NNW2.9 kmh NNW 5.0 mph8.0 kmh 30.00 in1015.9 mb 0.00 in0.0 mm 0.00 in0.0 mm 0.00 in0.0 mm
11:45 PM 61.9°F16.6°C 48.9°F9.4°C 62% 1.9 mph NW3.1 kmh NW 6.0 mph9.7 kmh 30.00 in1015.9 mb 0.00 in0.0 mm 0.00 in0.0 mm 0.00 in0.0 mm
11:50 PM 61.8°F16.6°C 48.8°F9.3°C 62% 1.7 mph NNW2.7 kmh NNW 6.0 mph9.7 kmh 30.01 in1016.3 mb 0.00 in0.0 mm 0.00 in0.0 mm 0.00 in0.0 mm
11:55 PM 61.7°F16.5°C 49.1°F9.5°C 63% 1.6 mph NW2.6 kmh NW 6.0 mph9.7 kmh 30.01 in1016.3 mb 0.00 in0.0 mm 0.00 in0.0 mm 0.00 in0.0 mm